sensor_id;sensor_type;location;lat;lon;timestamp;P1;durP1;ratioP1;P2;durP2;ratioP2
27618;SDS011;15039;50.830;4.730;2024-01-15T00:01:44;25.85;;;13.35;;
27618;SDS011;15039;50.830;4.730;2024-01-15T00:04:28;21.88;;;12.35;;
27618;SDS011;15039;50.830;4.730;2024-01-15T00:06:53;22.98;;;12.70;;
27618;SDS011;15039;50.830;4.730;2024-01-15T00:09:19;23.13;;;11.93;;
27618;SDS011;15039;50.830;4.730;2024-01-15T00:11:45;25.52;;;12.82;;
27618;SDS011;15039;50.830;4.730;2024-01-15T00:14:11;22.55;;;11.95;;
27618;SDS011;15039;50.830;4.730;2024-01-15T00:16:43;24.13;;;12.73;;
27618;SDS011;15039;50.830;4.730;2024-01-15T00:19:09;21.75;;;12.43;;
27618;SDS011;15039;50.830;4.730;2024-01-15T00:21:37;22.60;;;12.63;;
27618;SDS011;15039;50.830;4.730;2024-01-15T00:24:03;23.25;;;12.98;;
27618;SDS011;15039;50.830;4.730;2024-01-15T00:26:29;23.58;;;12.90;;
27618;SDS011;15039;50.830;4.730;2024-01-15T00:28:55;25.08;;;11.95;;
27618;SDS011;15039;50.830;4.730;2024-01-15T00:31:20;19.98;;;10.63;;
27618;SDS011;15039;50.830;4.730;2024-01-15T00:33:46;21.70;;;11.65;;
27618;SDS011;15039;50.830;4.730;2024-01-15T00:36:12;21.60;;;11.23;;
27618;SDS011;15039;50.830;4.730;2024-01-15T00:38:39;21.65;;;11.75;;
27618;SDS011;15039;50.830;4.730;2024-01-15T00:41:05;19.65;;;11.25;;
27618;SDS011;15039;50.830;4.730;2024-01-15T00:43:30;17.35;;;10.52;;
27618;SDS011;15039;50.830;4.730;2024-01-15T00:46:04;20.42;;;11.50;;
27618;SDS011;15039;50.830;4.730;2024-01-15T00:48:30;21.08;;;10.73;;
27618;SDS011;15039;50.830;4.730;2024-01-15T00:50:56;16.73;;;10.85;;
27618;SDS011;15039;50.830;4.730;2024-01-15T00:53:22;19.73;;;10.52;;
27618;SDS011;15039;50.830;4.730;2024-01-15T00:55:48;19.83;;;10.23;;
27618;SDS011;15039;50.830;4.730;2024-01-15T00:58:14;19.77;;;10.55;;
27618;SDS011;15039;50.830;4.730;2024-01-15T01:00:39;20.33;;;10.35;;
27618;SDS011;15039;50.830;4.730;2024-01-15T01:03:05;16.63;;;9.73;;
27618;SDS011;15039;50.830;4.730;2024-01-15T01:05:31;18.35;;;9.73;;
27618;SDS011;15039;50.830;4.730;2024-01-15T01:07:58;17.45;;;10.07;;
27618;SDS011;15039;50.830;4.730;2024-01-15T01:10:24;17.55;;;9.55;;
27618;SDS011;15039;50.830;4.730;2024-01-15T01:12:49;16.00;;;9.43;;
27618;SDS011;15039;50.830;4.730;2024-01-15T01:15:15;13.13;;;8.90;;
27618;SDS011;15039;50.830;4.730;2024-01-15T01:17:41;14.60;;;8.38;;
27618;SDS011;15039;50.830;4.730;2024-01-15T01:20:07;13.57;;;8.27;;
27618;SDS011;15039;50.830;4.730;2024-01-15T01:22:34;14.23;;;8.20;;
27618;SDS011;15039;50.830;4.730;2024-01-15T01:25:00;12.90;;;8.43;;
27618;SDS011;15039;50.830;4.730;2024-01-15T01:27:26;12.65;;;7.65;;
27618;SDS011;15039;50.830;4.730;2024-01-15T01:29:51;11.00;;;6.82;;
27618;SDS011;15039;50.830;4.730;2024-01-15T01:32:17;13.38;;;7.13;;
27618;SDS011;15039;50.830;4.730;2024-01-15T01:34:43;9.00;;;6.50;;
27618;SDS011;15039;50.830;4.730;2024-01-15T01:37:09;9.57;;;6.85;;
27618;SDS011;15039;50.830;4.730;2024-01-15T01:39:39;11.15;;;6.78;;
27618;SDS011;15039;50.830;4.730;2024-01-15T01:42:05;9.18;;;5.88;;
27618;SDS011;15039;50.830;4.730;2024-01-15T01:44:31;9.00;;;5.72;;
27618;SDS011;15039;50.830;4.730;2024-01-15T01:46:57;8.25;;;5.93;;
27618;SDS011;15039;50.830;4.730;2024-01-15T01:49:24;12.25;;;5.60;;
27618;SDS011;15039;50.830;4.730;2024-01-15T01:51:51;8.73;;;5.55;;
27618;SDS011;15039;50.830;4.730;2024-01-15T01:54:18;8.63;;;6.00;;
27618;SDS011;15039;50.830;4.730;2024-01-15T01:56:45;7.13;;;5.43;;
27618;SDS011;15039;50.830;4.730;2024-01-15T01:59:13;6.93;;;5.20;;
27618;SDS011;15039;50.830;4.730;2024-01-15T02:01:39;9.57;;;5.75;;
27618;SDS011;15039;50.830;4.730;2024-01-15T02:04:06;8.88;;;5.35;;
27618;SDS011;15039;50.830;4.730;2024-01-15T02:06:33;8.63;;;5.43;;
27618;SDS011;15039;50.830;4.730;2024-01-15T02:08:59;10.30;;;5.32;;
27618;SDS011;15039;50.830;4.730;2024-01-15T02:11:25;7.80;;;5.20;;
27618;SDS011;15039;50.830;4.730;2024-01-15T02:13:51;9.57;;;5.90;;
27618;SDS011;15039;50.830;4.730;2024-01-15T02:16:17;6.20;;;5.20;;
27618;SDS011;15039;50.830;4.730;2024-01-15T02:18:43;10.35;;;6.78;;
27618;SDS011;15039;50.830;4.730;2024-01-15T02:21:10;12.00;;;6.38;;
27618;SDS011;15039;50.830;4.730;2024-01-15T02:23:37;7.50;;;5.90;;
27618;SDS011;15039;50.830;4.730;2024-01-15T02:26:03;9.77;;;6.10;;
27618;SDS011;15039;50.830;4.730;2024-01-15T02:28:30;12.93;;;6.00;;
27618;SDS011;15039;50.830;4.730;2024-01-15T02:30:57;13.60;;;6.00;;
27618;SDS011;15039;50.830;4.730;2024-01-15T02:33:23;12.15;;;6.90;;
27618;SDS011;15039;50.830;4.730;2024-01-15T02:35:49;10.38;;;6.25;;
27618;SDS011;15039;50.830;4.730;2024-01-15T02:38:17;12.48;;;7.70;;
27618;SDS011;15039;50.830;4.730;2024-01-15T02:40:44;10.77;;;6.57;;
27618;SDS011;15039;50.830;4.730;2024-01-15T02:43:10;10.35;;;7.03;;
27618;SDS011;15039;50.830;4.730;2024-01-15T02:45:37;9.63;;;6.43;;
27618;SDS011;15039;50.830;4.730;2024-01-15T02:48:02;8.05;;;6.03;;
27618;SDS011;15039;50.830;4.730;2024-01-15T02:50:28;8.60;;;5.80;;
27618;SDS011;15039;50.830;4.730;2024-01-15T02:52:54;10.32;;;6.35;;
27618;SDS011;15039;50.830;4.730;2024-01-15T02:55:20;12.23;;;6.00;;
27618;SDS011;15039;50.830;4.730;2024-01-15T02:57:45;8.07;;;5.95;;
27618;SDS011;15039;50.830;4.730;2024-01-15T03:00:11;10.30;;;6.10;;
27618;SDS011;15039;50.830;4.730;2024-01-15T03:02:37;9.07;;;5.57;;
27618;SDS011;15039;50.830;4.730;2024-01-15T03:05:08;10.00;;;5.43;;
27618;SDS011;15039;50.830;4.730;2024-01-15T03:07:34;9.65;;;5.70;;
27618;SDS011;15039;50.830;4.730;2024-01-15T03:10:00;8.40;;;6.03;;
27618;SDS011;15039;50.830;4.730;2024-01-15T03:12:27;10.02;;;6.03;;
27618;SDS011;15039;50.830;4.730;2024-01-15T03:14:53;7.88;;;5.65;;
27618;SDS011;15039;50.830;4.730;2024-01-15T03:17:19;12.52;;;5.75;;
27618;SDS011;15039;50.830;4.730;2024-01-15T03:19:44;11.45;;;5.70;;
27618;SDS011;15039;50.830;4.730;2024-01-15T03:22:10;7.15;;;5.30;;
27618;SDS011;15039;50.830;4.730;2024-01-15T03:24:35;8.50;;;5.80;;
27618;SDS011;15039;50.830;4.730;2024-01-15T03:27:01;8.68;;;5.65;;
27618;SDS011;15039;50.830;4.730;2024-01-15T03:29:27;8.77;;;5.75;;
27618;SDS011;15039;50.830;4.730;2024-01-15T03:31:53;8.20;;;5.32;;
27618;SDS011;15039;50.830;4.730;2024-01-15T03:34:19;8.70;;;5.63;;
27618;SDS011;15039;50.830;4.730;2024-01-15T03:36:45;9.10;;;5.60;;
27618;SDS011;15039;50.830;4.730;2024-01-15T03:39:10;12.73;;;5.95;;
27618;SDS011;15039;50.830;4.730;2024-01-15T03:41:36;9.32;;;6.35;;
27618;SDS011;15039;50.830;4.730;2024-01-15T03:44:02;10.50;;;6.82;;
27618;SDS011;15039;50.830;4.730;2024-01-15T03:46:27;10.68;;;6.70;;
27618;SDS011;15039;50.830;4.730;2024-01-15T03:48:53;11.82;;;6.43;;
27618;SDS011;15039;50.830;4.730;2024-01-15T03:51:19;11.70;;;7.22;;
27618;SDS011;15039;50.830;4.730;2024-01-15T03:53:45;12.32;;;7.68;;
27618;SDS011;15039;50.830;4.730;2024-01-15T03:56:11;13.98;;;7.47;;
27618;SDS011;15039;50.830;4.730;2024-01-15T03:58:37;13.90;;;8.82;;
27618;SDS011;15039;50.830;4.730;2024-01-15T04:01:02;14.65;;;8.20;;
27618;SDS011;15039;50.830;4.730;2024-01-15T04:03:28;13.38;;;9.10;;
27618;SDS011;15039;50.830;4.730;2024-01-15T04:05:54;13.13;;;8.40;;
27618;SDS011;15039;50.830;4.730;2024-01-15T04:08:20;13.52;;;8.45;;
27618;SDS011;15039;50.830;4.730;2024-01-15T04:10:46;13.55;;;9.15;;
27618;SDS011;15039;50.830;4.730;2024-01-15T04:13:12;12.05;;;8.70;;
27618;SDS011;15039;50.830;4.730;2024-01-15T04:15:38;15.10;;;9.80;;
27618;SDS011;15039;50.830;4.730;2024-01-15T04:18:03;17.95;;;9.98;;
27618;SDS011;15039;50.830;4.730;2024-01-15T04:20:30;14.95;;;9.65;;
27618;SDS011;15039;50.830;4.730;2024-01-15T04:22:56;16.63;;;9.57;;
27618;SDS011;15039;50.830;4.730;2024-01-15T04:25:21;16.42;;;10.45;;
27618;SDS011;15039;50.830;4.730;2024-01-15T04:27:47;16.95;;;10.70;;
27618;SDS011;15039;50.830;4.730;2024-01-15T04:30:13;20.58;;;10.68;;
27618;SDS011;15039;50.830;4.730;2024-01-15T04:32:38;20.85;;;11.20;;
27618;SDS011;15039;50.830;4.730;2024-01-15T04:35:04;19.77;;;10.77;;
27618;SDS011;15039;50.830;4.730;2024-01-15T04:37:30;18.30;;;11.52;;
27618;SDS011;15039;50.830;4.730;2024-01-15T04:39:55;18.85;;;11.02;;
27618;SDS011;15039;50.830;4.730;2024-01-15T04:42:22;19.38;;;11.02;;
27618;SDS011;15039;50.830;4.730;2024-01-15T04:44:48;20.15;;;10.93;;
27618;SDS011;15039;50.830;4.730;2024-01-15T04:47:14;18.50;;;10.90;;
27618;SDS011;15039;50.830;4.730;2024-01-15T04:49:39;22.38;;;13.05;;
27618;SDS011;15039;50.830;4.730;2024-01-15T04:52:05;19.23;;;11.63;;
27618;SDS011;15039;50.830;4.730;2024-01-15T04:54:31;20.08;;;12.02;;
27618;SDS011;15039;50.830;4.730;2024-01-15T04:56:56;17.85;;;10.73;;
27618;SDS011;15039;50.830;4.730;2024-01-15T04:59:22;16.75;;;11.05;;
27618;SDS011;15039;50.830;4.730;2024-01-15T05:01:48;16.65;;;10.15;;
27618;SDS011;15039;50.830;4.730;2024-01-15T05:04:14;19.15;;;11.25;;
27618;SDS011;15039;50.830;4.730;2024-01-15T05:06:40;21.45;;;11.75;;
27618;SDS011;15039;50.830;4.730;2024-01-15T05:09:05;20.13;;;11.90;;
27618;SDS011;15039;50.830;4.730;2024-01-15T05:11:32;16.70;;;10.43;;
27618;SDS011;15039;50.830;4.730;2024-01-15T05:13:58;16.95;;;11.05;;
27618;SDS011;15039;50.830;4.730;2024-01-15T05:16:24;15.45;;;9.95;;
27618;SDS011;15039;50.830;4.730;2024-01-15T05:18:50;20.83;;;10.55;;
27618;SDS011;15039;50.830;4.730;2024-01-15T05:21:15;18.17;;;10.90;;
27618;SDS011;15039;50.830;4.730;2024-01-15T05:23:41;17.58;;;9.75;;
27618;SDS011;15039;50.830;4.730;2024-01-15T05:26:07;14.35;;;10.05;;
27618;SDS011;15039;50.830;4.730;2024-01-15T05:28:34;18.80;;;10.65;;
27618;SDS011;15039;50.830;4.730;2024-01-15T05:30:59;16.02;;;9.02;;
27618;SDS011;15039;50.830;4.730;2024-01-15T05:33:25;17.92;;;10.32;;
27618;SDS011;15039;50.830;4.730;2024-01-15T05:35:51;13.18;;;9.10;;
27618;SDS011;15039;50.830;4.730;2024-01-15T05:38:17;15.93;;;9.27;;
27618;SDS011;15039;50.830;4.730;2024-01-15T05:40:42;14.90;;;9.38;;
27618;SDS011;15039;50.830;4.730;2024-01-15T05:43:08;14.20;;;8.68;;
27618;SDS011;15039;50.830;4.730;2024-01-15T05:45:34;17.13;;;9.40;;
27618;SDS011;15039;50.830;4.730;2024-01-15T05:48:00;13.02;;;8.00;;
27618;SDS011;15039;50.830;4.730;2024-01-15T05:50:26;15.00;;;8.07;;
27618;SDS011;15039;50.830;4.730;2024-01-15T05:52:51;12.93;;;7.10;;
27618;SDS011;15039;50.830;4.730;2024-01-15T05:55:18;9.50;;;5.85;;
27618;SDS011;15039;50.830;4.730;2024-01-15T05:57:44;11.00;;;6.20;;
27618;SDS011;15039;50.830;4.730;2024-01-15T06:00:10;10.43;;;5.65;;
27618;SDS011;15039;50.830;4.730;2024-01-15T06:02:39;8.38;;;5.55;;
27618;SDS011;15039;50.830;4.730;2024-01-15T06:07:31;6.07;;;4.60;;
27618;SDS011;15039;50.830;4.730;2024-01-15T06:09:58;7.47;;;4.78;;
27618;SDS011;15039;50.830;4.730;2024-01-15T06:12:24;9.77;;;4.90;;
27618;SDS011;15039;50.830;4.730;2024-01-15T06:14:50;7.38;;;4.50;;
27618;SDS011;15039;50.830;4.730;2024-01-15T06:17:15;4.80;;;3.95;;
27618;SDS011;15039;50.830;4.730;2024-01-15T06:19:41;6.20;;;4.45;;
27618;SDS011;15039;50.830;4.730;2024-01-15T06:22:06;6.35;;;4.07;;
27618;SDS011;15039;50.830;4.730;2024-01-15T06:24:32;7.25;;;4.28;;
27618;SDS011;15039;50.830;4.730;2024-01-15T06:26:58;7.03;;;3.85;;
27618;SDS011;15039;50.830;4.730;2024-01-15T06:29:25;4.53;;;3.85;;
27618;SDS011;15039;50.830;4.730;2024-01-15T06:31:51;5.03;;;4.07;;
27618;SDS011;15039;50.830;4.730;2024-01-15T06:34:17;5.75;;;3.70;;
27618;SDS011;15039;50.830;4.730;2024-01-15T06:36:42;5.75;;;3.80;;
27618;SDS011;15039;50.830;4.730;2024-01-15T06:39:08;8.52;;;4.43;;
27618;SDS011;15039;50.830;4.730;2024-01-15T06:41:35;5.38;;;4.40;;
27618;SDS011;15039;50.830;4.730;2024-01-15T06:44:06;5.82;;;4.25;;
27618;SDS011;15039;50.830;4.730;2024-01-15T06:46:32;6.70;;;4.28;;
27618;SDS011;15039;50.830;4.730;2024-01-15T06:48:59;6.90;;;3.60;;
27618;SDS011;15039;50.830;4.730;2024-01-15T06:51:25;6.57;;;4.10;;
27618;SDS011;15039;50.830;4.730;2024-01-15T06:53:51;5.60;;;4.13;;
27618;SDS011;15039;50.830;4.730;2024-01-15T06:56:16;9.93;;;3.35;;
27618;SDS011;15039;50.830;4.730;2024-01-15T06:58:42;4.20;;;2.60;;
27618;SDS011;15039;50.830;4.730;2024-01-15T07:01:08;7.35;;;3.20;;
27618;SDS011;15039;50.830;4.730;2024-01-15T07:03:33;4.88;;;3.05;;
27618;SDS011;15039;50.830;4.730;2024-01-15T07:05:59;7.35;;;2.90;;
27618;SDS011;15039;50.830;4.730;2024-01-15T07:08:25;5.75;;;3.17;;
27618;SDS011;15039;50.830;4.730;2024-01-15T07:10:50;4.88;;;2.70;;
27618;SDS011;15039;50.830;4.730;2024-01-15T07:13:17;3.85;;;2.58;;
27618;SDS011;15039;50.830;4.730;2024-01-15T07:15:42;4.20;;;2.40;;
27618;SDS011;15039;50.830;4.730;2024-01-15T07:18:08;4.93;;;2.67;;
27618;SDS011;15039;50.830;4.730;2024-01-15T07:20:34;6.55;;;2.70;;
27618;SDS011;15039;50.830;4.730;2024-01-15T07:22:59;5.03;;;2.67;;
27618;SDS011;15039;50.830;4.730;2024-01-15T07:25:25;3.72;;;3.00;;
27618;SDS011;15039;50.830;4.730;2024-01-15T07:27:51;4.47;;;3.10;;
27618;SDS011;15039;50.830;4.730;2024-01-15T07:30:18;5.75;;;3.22;;
27618;SDS011;15039;50.830;4.730;2024-01-15T07:32:46;6.32;;;3.72;;
27618;SDS011;15039;50.830;4.730;2024-01-15T07:35:13;10.52;;;3.33;;
27618;SDS011;15039;50.830;4.730;2024-01-15T07:37:42;3.78;;;3.47;;
27618;SDS011;15039;50.830;4.730;2024-01-15T07:40:07;8.05;;;3.65;;
27618;SDS011;15039;50.830;4.730;2024-01-15T07:42:35;6.78;;;3.95;;
27618;SDS011;15039;50.830;4.730;2024-01-15T07:45:01;10.10;;;4.28;;
27618;SDS011;15039;50.830;4.730;2024-01-15T07:47:27;5.35;;;3.90;;
27618;SDS011;15039;50.830;4.730;2024-01-15T07:49:53;5.28;;;4.03;;
27618;SDS011;15039;50.830;4.730;2024-01-15T07:52:19;5.70;;;4.20;;
27618;SDS011;15039;50.830;4.730;2024-01-15T07:54:45;7.25;;;4.13;;
27618;SDS011;15039;50.830;4.730;2024-01-15T07:57:10;6.40;;;3.38;;
27618;SDS011;15039;50.830;4.730;2024-01-15T07:59:36;6.55;;;3.83;;
27618;SDS011;15039;50.830;4.730;2024-01-15T08:02:03;4.88;;;3.80;;
27618;SDS011;15039;50.830;4.730;2024-01-15T08:04:29;6.53;;;3.83;;
27618;SDS011;15039;50.830;4.730;2024-01-15T08:06:55;6.85;;;3.80;;
27618;SDS011;15039;50.830;4.730;2024-01-15T08:09:22;7.38;;;3.97;;
27618;SDS011;15039;50.830;4.730;2024-01-15T08:11:48;4.65;;;3.85;;
27618;SDS011;15039;50.830;4.730;2024-01-15T08:14:14;6.72;;;3.83;;
27618;SDS011;15039;50.830;4.730;2024-01-15T08:16:41;6.90;;;3.63;;
27618;SDS011;15039;50.830;4.730;2024-01-15T08:19:08;7.65;;;3.97;;
27618;SDS011;15039;50.830;4.730;2024-01-15T08:21:34;6.00;;;4.00;;
27618;SDS011;15039;50.830;4.730;2024-01-15T08:24:00;9.13;;;4.95;;
27618;SDS011;15039;50.830;4.730;2024-01-15T08:26:30;6.18;;;4.50;;
27618;SDS011;15039;50.830;4.730;2024-01-15T08:28:56;7.28;;;5.07;;
27618;SDS011;15039;50.830;4.730;2024-01-15T08:31:22;7.75;;;4.72;;
27618;SDS011;15039;50.830;4.730;2024-01-15T08:33:48;5.07;;;4.57;;
27618;SDS011;15039;50.830;4.730;2024-01-15T08:36:13;8.38;;;4.70;;
27618;SDS011;15039;50.830;4.730;2024-01-15T08:38:39;9.50;;;5.20;;
27618;SDS011;15039;50.830;4.730;2024-01-15T08:41:05;6.63;;;4.57;;
27618;SDS011;15039;50.830;4.730;2024-01-15T08:43:31;9.18;;;5.15;;
27618;SDS011;15039;50.830;4.730;2024-01-15T08:45:59;6.55;;;4.32;;
27618;SDS011;15039;50.830;4.730;2024-01-15T08:48:25;7.43;;;4.13;;
27618;SDS011;15039;50.830;4.730;2024-01-15T08:50:52;9.00;;;4.22;;
27618;SDS011;15039;50.830;4.730;2024-01-15T08:53:19;8.40;;;4.43;;
27618;SDS011;15039;50.830;4.730;2024-01-15T08:55:45;11.55;;;3.65;;
27618;SDS011;15039;50.830;4.730;2024-01-15T08:58:11;4.82;;;3.03;;
27618;SDS011;15039;50.830;4.730;2024-01-15T09:00:37;3.47;;;3.03;;
27618;SDS011;15039;50.830;4.730;2024-01-15T09:03:03;6.75;;;3.50;;
27618;SDS011;15039;50.830;4.730;2024-01-15T09:05:29;5.60;;;3.15;;
27618;SDS011;15039;50.830;4.730;2024-01-15T09:07:55;6.80;;;2.78;;
27618;SDS011;15039;50.830;4.730;2024-01-15T09:10:21;4.80;;;3.20;;
27618;SDS011;15039;50.830;4.730;2024-01-15T09:12:47;6.90;;;2.50;;
27618;SDS011;15039;50.830;4.730;2024-01-15T09:15:14;3.63;;;2.42;;
27618;SDS011;15039;50.830;4.730;2024-01-15T09:17:39;8.00;;;2.45;;
27618;SDS011;15039;50.830;4.730;2024-01-15T09:20:05;3.08;;;2.20;;
27618;SDS011;15039;50.830;4.730;2024-01-15T09:22:32;3.60;;;2.05;;
27618;SDS011;15039;50.830;4.730;2024-01-15T09:24:58;2.83;;;2.00;;
27618;SDS011;15039;50.830;4.730;2024-01-15T09:27:24;5.32;;;1.92;;
27618;SDS011;15039;50.830;4.730;2024-01-15T09:29:51;5.95;;;2.17;;
27618;SDS011;15039;50.830;4.730;2024-01-15T09:32:17;3.80;;;1.83;;
27618;SDS011;15039;50.830;4.730;2024-01-15T09:34:43;5.10;;;1.88;;
27618;SDS011;15039;50.830;4.730;2024-01-15T09:37:11;4.55;;;1.63;;
27618;SDS011;15039;50.830;4.730;2024-01-15T09:39:37;3.35;;;1.85;;
27618;SDS011;15039;50.830;4.730;2024-01-15T09:42:03;9.20;;;2.25;;
27618;SDS011;15039;50.830;4.730;2024-01-15T09:44:29;3.60;;;1.92;;
27618;SDS011;15039;50.830;4.730;2024-01-15T09:46:57;5.20;;;1.70;;
27618;SDS011;15039;50.830;4.730;2024-01-15T09:49:23;4.95;;;1.63;;
27618;SDS011;15039;50.830;4.730;2024-01-15T09:51:49;5.45;;;1.95;;
27618;SDS011;15039;50.830;4.730;2024-01-15T09:54:16;7.55;;;2.00;;
27618;SDS011;15039;50.830;4.730;2024-01-15T09:56:44;3.17;;;1.88;;
27618;SDS011;15039;50.830;4.730;2024-01-15T09:59:13;6.50;;;1.95;;
27618;SDS011;15039;50.830;4.730;2024-01-15T10:04:08;5.32;;;2.05;;
27618;SDS011;15039;50.830;4.730;2024-01-15T10:06:33;3.67;;;1.58;;
27618;SDS011;15039;50.830;4.730;2024-01-15T10:09:00;7.80;;;2.38;;
27618;SDS011;15039;50.830;4.730;2024-01-15T10:11:26;5.63;;;1.58;;
27618;SDS011;15039;50.830;4.730;2024-01-15T10:13:52;5.32;;;1.90;;
27618;SDS011;15039;50.830;4.730;2024-01-15T10:16:22;3.53;;;1.92;;
27618;SDS011;15039;50.830;4.730;2024-01-15T10:18:49;3.97;;;1.48;;
27618;SDS011;15039;50.830;4.730;2024-01-15T10:21:16;4.78;;;1.65;;
27618;SDS011;15039;50.830;4.730;2024-01-15T10:23:41;1.55;;;1.45;;
27618;SDS011;15039;50.830;4.730;2024-01-15T10:26:07;2.75;;;1.75;;
27618;SDS011;15039;50.830;4.730;2024-01-15T10:28:33;4.85;;;1.40;;
27618;SDS011;15039;50.830;4.730;2024-01-15T10:31:00;2.92;;;1.60;;
27618;SDS011;15039;50.830;4.730;2024-01-15T10:33:26;2.70;;;1.67;;
27618;SDS011;15039;50.830;4.730;2024-01-15T10:35:56;3.47;;;1.58;;
27618;SDS011;15039;50.830;4.730;2024-01-15T10:38:24;3.47;;;1.63;;
27618;SDS011;15039;50.830;4.730;2024-01-15T10:40:54;3.03;;;1.35;;
27618;SDS011;15039;50.830;4.730;2024-01-15T10:43:20;4.57;;;1.40;;
27618;SDS011;15039;50.830;4.730;2024-01-15T10:45:53;3.22;;;1.52;;
27618;SDS011;15039;50.830;4.730;2024-01-15T10:48:19;7.15;;;1.95;;
27618;SDS011;15039;50.830;4.730;2024-01-15T10:50:45;2.65;;;1.60;;
27618;SDS011;15039;50.830;4.730;2024-01-15T10:53:12;2.53;;;1.20;;
27618;SDS011;15039;50.830;4.730;2024-01-15T10:55:39;3.08;;;1.33;;
27618;SDS011;15039;50.830;4.730;2024-01-15T10:58:07;5.00;;;1.48;;
27618;SDS011;15039;50.830;4.730;2024-01-15T11:00:37;2.60;;;1.63;;
27618;SDS011;15039;50.830;4.730;2024-01-15T11:03:04;6.75;;;1.50;;
27618;SDS011;15039;50.830;4.730;2024-01-15T11:05:37;4.60;;;1.63;;
27618;SDS011;15039;50.830;4.730;2024-01-15T11:08:05;3.47;;;1.50;;
27618;SDS011;15039;50.830;4.730;2024-01-15T11:13:08;2.50;;;1.55;;
27618;SDS011;15039;50.830;4.730;2024-01-15T11:16:20;3.28;;;1.50;;
27618;SDS011;15039;50.830;4.730;2024-01-15T11:18:28;3.60;;;1.38;;
27618;SDS011;15039;50.830;4.730;2024-01-15T11:21:28;3.47;;;1.67;;
27618;SDS011;15039;50.830;4.730;2024-01-15T11:24:06;5.07;;;1.52;;
27618;SDS011;15039;50.830;4.730;2024-01-15T11:31:57;6.80;;;2.08;;
27618;SDS011;15039;50.830;4.730;2024-01-15T11:37:23;5.97;;;1.67;;
27618;SDS011;15039;50.830;4.730;2024-01-15T11:40:00;3.78;;;1.35;;
27618;SDS011;15039;50.830;4.730;2024-01-15T11:42:36;3.90;;;1.35;;
27618;SDS011;15039;50.830;4.730;2024-01-15T11:45:02;2.83;;;1.25;;
27618;SDS011;15039;50.830;4.730;2024-01-15T11:47:57;4.85;;;1.70;;
27618;SDS011;15039;50.830;4.730;2024-01-15T11:50:33;4.45;;;1.63;;
27618;SDS011;15039;50.830;4.730;2024-01-15T11:53:00;3.10;;;1.27;;
27618;SDS011;15039;50.830;4.730;2024-01-15T11:55:33;2.95;;;1.63;;
27618;SDS011;15039;50.830;4.730;2024-01-15T11:58:02;3.03;;;1.48;;
27618;SDS011;15039;50.830;4.730;2024-01-15T12:00:39;6.85;;;1.30;;
27618;SDS011;15039;50.830;4.730;2024-01-15T12:03:06;5.28;;;1.33;;
27618;SDS011;15039;50.830;4.730;2024-01-15T12:05:32;3.95;;;1.83;;
27618;SDS011;15039;50.830;4.730;2024-01-15T12:07:58;2.30;;;0.93;;
27618;SDS011;15039;50.830;4.730;2024-01-15T12:10:23;3.65;;;1.20;;
27618;SDS011;15039;50.830;4.730;2024-01-15T12:13:00;3.40;;;1.20;;
27618;SDS011;15039;50.830;4.730;2024-01-15T12:15:30;4.97;;;1.45;;
27618;SDS011;15039;50.830;4.730;2024-01-15T12:18:00;3.78;;;1.33;;
27618;SDS011;15039;50.830;4.730;2024-01-15T12:20:30;4.13;;;1.40;;
27618;SDS011;15039;50.830;4.730;2024-01-15T12:22:56;1.70;;;1.20;;
27618;SDS011;15039;50.830;4.730;2024-01-15T12:25:22;2.47;;;1.42;;
27618;SDS011;15039;50.830;4.730;2024-01-15T12:27:51;5.13;;;1.23;;
27618;SDS011;15039;50.830;4.730;2024-01-15T12:30:17;3.05;;;1.20;;
27618;SDS011;15039;50.830;4.730;2024-01-15T12:32:43;2.78;;;1.10;;
27618;SDS011;15039;50.830;4.730;2024-01-15T12:35:10;7.82;;;1.48;;
27618;SDS011;15039;50.830;4.730;2024-01-15T12:37:36;2.78;;;1.10;;
27618;SDS011;15039;50.830;4.730;2024-01-15T12:40:04;3.63;;;1.30;;
27618;SDS011;15039;50.830;4.730;2024-01-15T12:42:32;10.10;;;1.58;;
27618;SDS011;15039;50.830;4.730;2024-01-15T12:44:58;3.28;;;1.30;;
27618;SDS011;15039;50.830;4.730;2024-01-15T12:47:24;2.63;;;1.50;;
27618;SDS011;15039;50.830;4.730;2024-01-15T12:49:51;4.25;;;1.40;;
27618;SDS011;15039;50.830;4.730;2024-01-15T12:54:51;3.77;;;0.93;;
27618;SDS011;15039;50.830;4.730;2024-01-15T12:57:17;5.10;;;1.55;;
27618;SDS011;15039;50.830;4.730;2024-01-15T12:59:43;4.30;;;1.35;;
27618;SDS011;15039;50.830;4.730;2024-01-15T13:02:10;1.27;;;1.17;;
27618;SDS011;15039;50.830;4.730;2024-01-15T13:04:40;3.30;;;1.52;;
27618;SDS011;15039;50.830;4.730;2024-01-15T13:07:06;2.67;;;0.95;;
27618;SDS011;15039;50.830;4.730;2024-01-15T13:09:32;3.60;;;1.20;;
27618;SDS011;15039;50.830;4.730;2024-01-15T13:12:01;2.20;;;1.30;;
27618;SDS011;15039;50.830;4.730;2024-01-15T13:14:28;3.03;;;1.13;;
27618;SDS011;15039;50.830;4.730;2024-01-15T13:16:54;5.60;;;1.40;;
27618;SDS011;15039;50.830;4.730;2024-01-15T13:19:21;3.63;;;1.52;;
27618;SDS011;15039;50.830;4.730;2024-01-15T13:21:47;4.70;;;1.48;;
27618;SDS011;15039;50.830;4.730;2024-01-15T13:24:15;7.00;;;1.35;;
27618;SDS011;15039;50.830;4.730;2024-01-15T13:26:40;4.57;;;1.70;;
27618;SDS011;15039;50.830;4.730;2024-01-15T13:29:06;4.97;;;1.50;;
27618;SDS011;15039;50.830;4.730;2024-01-15T13:31:32;1.40;;;0.90;;
27618;SDS011;15039;50.830;4.730;2024-01-15T13:33:58;1.33;;;1.00;;
27618;SDS011;15039;50.830;4.730;2024-01-15T13:36:25;1.15;;;1.15;;
27618;SDS011;15039;50.830;4.730;2024-01-15T13:38:51;0.90;;;0.80;;
27618;SDS011;15039;50.830;4.730;2024-01-15T13:41:18;2.72;;;1.48;;
27618;SDS011;15039;50.830;4.730;2024-01-15T13:43:49;1.20;;;1.10;;
27618;SDS011;15039;50.830;4.730;2024-01-15T13:46:18;3.75;;;1.55;;
27618;SDS011;15039;50.830;4.730;2024-01-15T13:48:48;6.78;;;0.90;;
27618;SDS011;15039;50.830;4.730;2024-01-15T13:51:22;2.58;;;1.08;;
27618;SDS011;15039;50.830;4.730;2024-01-15T13:53:54;2.47;;;1.02;;
27618;SDS011;15039;50.830;4.730;2024-01-15T13:56:23;1.73;;;1.05;;
27618;SDS011;15039;50.830;4.730;2024-01-15T13:58:49;2.15;;;1.20;;
27618;SDS011;15039;50.830;4.730;2024-01-15T14:01:17;2.03;;;1.20;;
27618;SDS011;15039;50.830;4.730;2024-01-15T14:03:42;3.95;;;1.40;;
27618;SDS011;15039;50.830;4.730;2024-01-15T14:06:09;1.42;;;1.20;;
27618;SDS011;15039;50.830;4.730;2024-01-15T14:08:39;1.02;;;0.98;;
27618;SDS011;15039;50.830;4.730;2024-01-15T14:11:05;2.85;;;0.95;;
27618;SDS011;15039;50.830;4.730;2024-01-15T14:13:32;3.95;;;1.33;;
27618;SDS011;15039;50.830;4.730;2024-01-15T14:15:58;2.22;;;1.00;;
27618;SDS011;15039;50.830;4.730;2024-01-15T14:18:26;2.53;;;1.13;;
27618;SDS011;15039;50.830;4.730;2024-01-15T14:20:52;1.90;;;1.10;;
27618;SDS011;15039;50.830;4.730;2024-01-15T14:23:20;4.60;;;1.08;;
27618;SDS011;15039;50.830;4.730;2024-01-15T14:25:48;1.20;;;0.98;;
27618;SDS011;15039;50.830;4.730;2024-01-15T14:28:17;2.33;;;0.80;;
27618;SDS011;15039;50.830;4.730;2024-01-15T14:38:44;1.80;;;1.05;;
27618;SDS011;15039;50.830;4.730;2024-01-15T14:41:25;0.93;;;0.88;;
27618;SDS011;15039;50.830;4.730;2024-01-15T14:44:24;1.63;;;1.10;;
27618;SDS011;15039;50.830;4.730;2024-01-15T14:47:13;1.27;;;0.90;;
27618;SDS011;15039;50.830;4.730;2024-01-15T14:49:40;4.28;;;1.20;;
27618;SDS011;15039;50.830;4.730;2024-01-15T14:52:40;2.35;;;1.23;;
27618;SDS011;15039;50.830;4.730;2024-01-15T14:55:46;1.20;;;1.00;;
27618;SDS011;15039;50.830;4.730;2024-01-15T14:58:25;1.30;;;1.20;;
27618;SDS011;15039;50.830;4.730;2024-01-15T15:01:12;1.95;;;1.58;;
27618;SDS011;15039;50.830;4.730;2024-01-15T15:04:05;2.20;;;1.92;;
27618;SDS011;15039;50.830;4.730;2024-01-15T15:06:52;2.60;;;2.13;;
27618;SDS011;15039;50.830;4.730;2024-01-15T15:10:06;2.47;;;1.98;;